createdAt,value
2019-02-15T00:00:21.636Z,99.99
2019-02-15T00:01:21.624Z,99.99
2019-02-15T00:02:21.614Z,99.99
2019-02-15T00:03:21.605Z,99.99
2019-02-15T00:04:21.593Z,99.99
2019-02-15T00:05:21.584Z,99.99
2019-02-15T00:06:21.571Z,99.99
2019-02-15T00:07:21.572Z,99.99
2019-02-15T00:08:21.553Z,99.99
2019-02-15T00:09:21.591Z,99.99
2019-02-15T00:10:21.531Z,99.99
2019-02-15T00:11:21.527Z,99.99
2019-02-15T00:12:21.509Z,99.99
2019-02-15T00:13:21.521Z,99.99
2019-02-15T00:14:21.490Z,99.99
2019-02-15T00:15:21.482Z,99.99
2019-02-15T00:16:21.470Z,99.99
2019-02-15T00:17:21.451Z,99.99
2019-02-15T00:18:21.450Z,99.99
2019-02-15T00:19:21.457Z,99.99
2019-02-15T00:20:21.427Z,99.99
2019-02-15T00:21:21.419Z,99.99
2019-02-15T00:22:21.406Z,99.99
2019-02-15T00:23:21.387Z,99.99
2019-02-15T00:24:21.387Z,99.99
2019-02-15T00:25:21.380Z,99.99
2019-02-15T00:26:21.369Z,99.99
2019-02-15T00:27:21.355Z,99.99
2019-02-15T00:28:21.344Z,99.99
2019-02-15T00:29:21.325Z,99.99
2019-02-15T00:30:21.324Z,99.99
2019-02-15T00:31:21.311Z,99.99
2019-02-15T00:32:21.303Z,99.99
2019-02-15T00:33:21.294Z,99.99
2019-02-15T00:34:21.283Z,99.99
2019-02-15T00:35:21.263Z,99.99
2019-02-15T00:36:21.262Z,99.99
2019-02-15T00:37:21.263Z,99.99
2019-02-15T00:38:21.243Z,99.99
2019-02-15T00:39:21.229Z,99.99
2019-02-15T00:40:21.219Z,99.99
2019-02-15T00:41:21.210Z,99.99
2019-02-15T00:42:21.200Z,99.99
2019-02-15T00:43:22.542Z,99.99
2019-02-15T00:44:21.177Z,99.99
2019-02-15T00:45:21.175Z,99.99
2019-02-15T00:46:21.160Z,99.99
2019-02-15T00:47:21.147Z,99.99
2019-02-15T00:48:21.135Z,99.99
2019-02-15T00:49:21.125Z,99.99
2019-02-15T00:50:21.116Z,99.99
2019-02-15T00:51:21.105Z,99.99
2019-02-15T00:52:21.108Z,99.99
2019-02-15T00:53:21.114Z,99.99
2019-02-15T00:54:21.073Z,99.99
2019-02-15T00:55:21.061Z,99.99
2019-02-15T00:56:21.050Z,99.99
2019-02-15T00:57:21.041Z,99.99
2019-02-15T00:58:21.032Z,99.99
2019-02-15T00:59:21.075Z,99.99
2019-02-15T01:00:21.015Z,99.99
2019-02-15T01:01:20.999Z,99.99
2019-02-15T01:02:20.995Z,99.99
2019-02-15T01:03:20.976Z,99.99
2019-02-15T01:04:20.966Z,99.99
2019-02-15T01:05:20.955Z,99.99
2019-02-15T01:06:20.947Z,99.99
2019-02-15T01:07:20.947Z,99.99
2019-02-15T01:08:20.924Z,99.99
2019-02-15T01:09:20.913Z,99.99
2019-02-15T01:10:20.924Z,99.99
2019-02-15T01:11:20.902Z,99.99
2019-02-15T01:12:20.889Z,99.99
2019-02-15T01:13:20.893Z,99.99
2019-02-15T01:14:20.876Z,99.99
2019-02-15T01:15:20.853Z,99.99
2019-02-15T01:16:20.839Z,99.99
2019-02-15T01:17:20.830Z,99.99
2019-02-15T01:18:20.820Z,99.99
2019-02-15T01:19:20.807Z,99.99
2019-02-15T01:20:20.796Z,99.99
2019-02-15T01:21:20.786Z,99.99
2019-02-15T01:22:20.773Z,99.99
2019-02-15T01:23:20.764Z,99.99
2019-02-15T01:24:20.753Z,99.99
2019-02-15T01:25:20.741Z,99.99
2019-02-15T01:26:20.735Z,99.99
2019-02-15T01:27:20.721Z,99.99
2019-02-15T01:28:20.700Z,99.99
2019-02-15T01:29:20.699Z,99.99
2019-02-15T01:30:20.694Z,99.99
2019-02-15T01:31:20.681Z,99.99
2019-02-15T01:32:20.668Z,99.99
2019-02-15T01:33:20.656Z,99.99
2019-02-15T01:34:20.645Z,99.99
2019-02-15T01:35:20.633Z,99.99
2019-02-15T01:36:20.651Z,99.99
2019-02-15T01:37:20.610Z,99.99
2019-02-15T01:38:20.607Z,99.99
2019-02-15T01:39:20.594Z,99.99
2019-02-15T01:40:20.580Z,99.99
2019-02-15T01:41:20.575Z,99.99
2019-02-15T01:42:20.560Z,99.99
2019-02-15T01:43:20.546Z,99.99
2019-02-15T01:44:20.537Z,99.99
2019-02-15T01:45:20.520Z,99.99
2019-02-15T01:46:20.516Z,99.99
2019-02-15T01:47:20.503Z,99.99
2019-02-15T01:48:20.493Z,99.99
2019-02-15T01:49:20.530Z,99.99
2019-02-15T01:50:20.473Z,99.99
2019-02-15T01:51:20.464Z,99.99
2019-02-15T01:52:20.455Z,99.99
2019-02-15T01:53:20.445Z,99.99
2019-02-15T01:54:20.431Z,99.99
2019-02-15T01:55:20.415Z,99.99
2019-02-15T01:56:20.405Z,99.99
2019-02-15T01:57:20.395Z,99.99
2019-02-15T01:58:20.385Z,99.99
2019-02-15T01:59:20.374Z,99.99
2019-02-15T02:00:20.362Z,99.99
2019-02-15T02:01:20.353Z,99.99
2019-02-15T02:02:20.341Z,99.99
2019-02-15T02:03:20.326Z,99.99
2019-02-15T02:04:20.317Z,99.99
2019-02-15T02:05:20.318Z,99.99
2019-02-15T02:06:20.296Z,99.99
2019-02-15T02:07:20.284Z,99.99
2019-02-15T02:08:20.276Z,99.99
2019-02-15T02:09:20.256Z,99.99
2019-02-15T02:10:20.252Z,99.99
2019-02-15T02:11:20.263Z,99.99
2019-02-15T02:12:20.230Z,99.99
2019-02-15T02:13:20.219Z,99.99
2019-02-15T02:14:20.207Z,99.99
2019-02-15T02:15:20.190Z,99.99
2019-02-15T02:16:20.183Z,99.99
2019-02-15T02:17:20.177Z,99.99
2019-02-15T02:18:20.187Z,99.99
2019-02-15T02:19:20.150Z,99.99
2019-02-15T02:20:20.131Z,99.99
2019-02-15T02:21:20.127Z,99.99
2019-02-15T02:22:20.136Z,99.99
2019-02-15T02:23:20.111Z,99.99
2019-02-15T02:24:20.094Z,99.99
2019-02-15T02:25:20.084Z,99.99
2019-02-15T02:26:20.073Z,99.99
2019-02-15T02:27:20.063Z,99.99
2019-02-15T02:28:20.073Z,99.99
2019-02-15T02:29:20.042Z,99.99
2019-02-15T02:30:20.024Z,99.99
2019-02-15T02:31:20.017Z,99.99
2019-02-15T02:32:20.025Z,99.99
2019-02-15T02:33:19.987Z,99.99
2019-02-15T02:34:19.985Z,99.99
2019-02-15T02:35:19.973Z,99.99
2019-02-15T02:36:19.961Z,99.99
2019-02-15T02:37:19.938Z,99.99
2019-02-15T02:38:19.949Z,99.99
2019-02-15T02:39:20.033Z,99.99
2019-02-15T02:40:19.919Z,99.99
2019-02-15T02:41:19.907Z,99.99
2019-02-15T02:42:19.901Z,99.99
2019-02-15T02:43:19.880Z,99.99
2019-02-15T02:44:19.869Z,99.99
2019-02-15T02:45:19.860Z,99.99
2019-02-15T02:46:19.849Z,99.99
2019-02-15T02:47:19.835Z,99.99
2019-02-15T02:48:19.814Z,99.99
2019-02-15T02:49:19.812Z,99.99
2019-02-15T02:50:19.793Z,99.99
2019-02-15T02:51:19.798Z,99.99
2019-02-15T02:52:19.788Z,99.99
2019-02-15T02:53:19.768Z,99.99
2019-02-15T02:54:19.749Z,99.99
2019-02-15T02:55:19.741Z,99.99
2019-02-15T02:56:19.730Z,99.99
2019-02-15T02:57:19.725Z,99.99
2019-02-15T02:58:19.731Z,99.99
2019-02-15T02:59:19.698Z,99.99
2019-02-15T03:00:19.687Z,99.99
2019-02-15T03:01:19.674Z,99.99
2019-02-15T03:02:19.681Z,99.99
2019-02-15T03:03:19.653Z,99.99
2019-02-15T03:04:19.641Z,99.99
2019-02-15T03:05:19.658Z,99.99
2019-02-15T03:06:19.609Z,99.99
2019-02-15T03:07:19.606Z,99.99
2019-02-15T03:08:19.595Z,99.99
2019-02-15T03:09:19.584Z,99.99
2019-02-15T03:10:19.574Z,99.99
2019-02-15T03:11:19.554Z,99.99
2019-02-15T03:12:19.550Z,99.99
2019-02-15T03:13:19.558Z,99.99
2019-02-15T03:14:19.536Z,99.99
2019-02-15T03:15:19.516Z,99.99
2019-02-15T03:16:19.509Z,99.99
2019-02-15T03:17:19.492Z,99.99
2019-02-15T03:18:19.483Z,99.99
2019-02-15T03:19:19.483Z,99.99
2019-02-15T03:20:30.544Z,99.99
2019-02-15T03:21:19.542Z,99.99
2019-02-15T03:22:19.438Z,99.99
2019-02-15T03:23:19.421Z,99.99
2019-02-15T03:24:19.418Z,99.99
2019-02-15T03:25:19.401Z,99.99
2019-02-15T03:26:19.390Z,99.99
2019-02-15T03:27:19.379Z,99.99
2019-02-15T03:28:19.373Z,99.99
2019-02-15T03:29:19.354Z,99.99
2019-02-15T03:30:19.987Z,99.99
2019-02-15T03:31:19.335Z,99.99
2019-02-15T03:32:19.322Z,99.99
2019-02-15T03:33:19.324Z,99.99
2019-02-15T03:34:19.294Z,99.99
2019-02-15T03:35:19.293Z,99.99
2019-02-15T03:36:19.276Z,99.99
2019-02-15T03:37:19.264Z,99.99
2019-02-15T03:38:19.256Z,99.99
2019-02-15T03:39:19.232Z,99.99
2019-02-15T03:40:19.231Z,99.99
2019-02-15T03:41:19.215Z,99.99
2019-02-15T03:42:19.208Z,99.99
2019-02-15T03:43:19.216Z,99.99
2019-02-15T03:44:22.297Z,99.99
2019-02-15T03:45:19.165Z,99.99
2019-02-15T03:46:19.164Z,99.99
2019-02-15T03:47:19.157Z,99.99
2019-02-15T03:48:19.138Z,99.99
2019-02-15T03:49:19.146Z,99.99
2019-02-15T03:50:19.114Z,99.99
2019-02-15T03:51:19.100Z,99.99
2019-02-15T03:52:19.093Z,99.99
2019-02-15T03:53:19.088Z,99.99
2019-02-15T03:54:19.079Z,99.99
2019-02-15T03:55:19.058Z,99.99
2019-02-15T03:56:19.047Z,99.99
2019-02-15T03:57:19.036Z,99.99
2019-02-15T03:58:19.028Z,99.99
2019-02-15T03:59:19.012Z,99.99
2019-02-15T04:00:19.001Z,99.99
2019-02-15T04:01:18.995Z,99.99
2019-02-15T04:02:18.981Z,99.99
2019-02-15T04:03:18.966Z,99.99
2019-02-15T04:04:18.970Z,99.99
2019-02-15T04:05:18.964Z,99.99
2019-02-15T04:06:18.968Z,99.99
2019-02-15T04:07:18.930Z,99.99
2019-02-15T04:08:18.912Z,99.99
2019-02-15T04:09:18.912Z,99.99
2019-02-15T04:10:18.887Z,99.99
2019-02-15T04:11:18.876Z,99.99
2019-02-15T04:12:18.867Z,99.99
2019-02-15T04:13:18.868Z,99.99
2019-02-15T04:14:18.841Z,99.99
2019-02-15T04:15:18.828Z,99.99
2019-02-15T04:16:18.818Z,99.99
2019-02-15T04:17:18.807Z,99.99
2019-02-15T04:18:18.802Z,99.99
2019-02-15T04:19:18.778Z,99.99
2019-02-15T04:20:18.771Z,99.99
2019-02-15T04:21:18.762Z,99.99
2019-02-15T04:22:18.750Z,99.99
2019-02-15T04:23:18.740Z,99.99
2019-02-15T04:24:18.723Z,99.99
2019-02-15T04:25:18.713Z,99.99
2019-02-15T04:26:18.704Z,99.99
2019-02-15T04:27:18.694Z,99.99
2019-02-15T04:28:18.704Z,99.99
2019-02-15T04:29:18.672Z,99.99
2019-02-15T04:30:18.662Z,99.99
2019-02-15T04:31:18.662Z,99.99
2019-02-15T04:32:18.637Z,99.99
2019-02-15T04:33:18.623Z,99.99
2019-02-15T04:34:18.612Z,99.99
2019-02-15T04:35:18.599Z,99.99
2019-02-15T04:36:18.590Z,99.99
2019-02-15T04:37:18.611Z,99.99
2019-02-15T04:38:18.565Z,99.99
2019-02-15T04:39:18.553Z,99.99
2019-02-15T04:40:18.542Z,99.99
2019-02-15T04:41:18.532Z,99.99
2019-02-15T04:42:18.518Z,99.99
2019-02-15T04:43:18.509Z,99.99
2019-02-15T04:44:18.501Z,99.99
2019-02-15T04:45:18.486Z,99.99
2019-02-15T04:46:18.477Z,99.99
2019-02-15T04:47:18.456Z,99.99
2019-02-15T04:48:18.444Z,99.99
2019-02-15T04:49:18.458Z,99.99
2019-02-15T04:50:18.428Z,99.99
2019-02-15T04:51:18.458Z,99.99
2019-02-15T04:52:18.406Z,99.99
2019-02-15T04:53:18.389Z,99.99
2019-02-15T04:54:18.381Z,99.99
2019-02-15T04:55:18.371Z,99.99
2019-02-15T04:56:18.369Z,99.99
2019-02-15T04:57:18.347Z,99.99
2019-02-15T04:58:18.339Z,99.99
2019-02-15T04:59:18.323Z,99.99
2019-02-15T05:00:18.317Z,99.99
2019-02-15T05:01:18.301Z,99.99
2019-02-15T05:02:18.289Z,99.99
2019-02-15T05:03:19.514Z,99.99
2019-02-15T05:04:18.265Z,99.99
2019-02-15T05:05:18.256Z,99.99
2019-02-15T05:06:18.268Z,99.99
2019-02-15T05:07:18.230Z,99.99
2019-02-15T05:08:18.218Z,99.99
2019-02-15T05:09:18.205Z,99.99
2019-02-15T05:10:18.244Z,99.99
2019-02-15T05:11:18.185Z,99.99
2019-02-15T05:12:18.175Z,99.99
2019-02-15T05:13:18.161Z,99.99
2019-02-15T05:14:18.148Z,99.99
2019-02-15T05:15:18.138Z,99.99
2019-02-15T05:16:18.126Z,99.99
2019-02-15T05:17:18.114Z,99.99
2019-02-15T05:18:18.106Z,99.99
2019-02-15T05:19:18.092Z,99.99
2019-02-15T05:20:18.079Z,99.99
2019-02-15T05:21:18.069Z,99.99
2019-02-15T05:22:18.057Z,99.99
2019-02-15T05:23:18.043Z,99.99
2019-02-15T05:24:18.030Z,99.99
2019-02-15T05:25:18.024Z,99.99
2019-02-15T05:26:18.006Z,99.99
2019-02-15T05:27:17.999Z,99.99
2019-02-15T05:28:17.987Z,99.99
2019-02-15T05:29:17.975Z,99.99
2019-02-15T05:30:17.962Z,99.99
2019-02-15T05:31:17.946Z,99.99
2019-02-15T05:32:17.937Z,99.99
2019-02-15T05:33:17.931Z,99.99
2019-02-15T05:34:17.916Z,99.99
2019-02-15T05:35:17.929Z,99.99
2019-02-15T05:36:17.898Z,99.99
2019-02-15T05:37:17.882Z,99.99
2019-02-15T05:38:17.870Z,99.99
2019-02-15T05:39:17.882Z,99.99
2019-02-15T05:40:17.846Z,99.99
2019-02-15T05:41:17.848Z,99.99
2019-02-15T05:42:17.825Z,99.99
2019-02-15T05:43:17.807Z,99.99
2019-02-15T05:44:17.801Z,99.99
2019-02-15T05:45:17.789Z,99.99
2019-02-15T05:46:17.776Z,99.99
2019-02-15T05:47:17.763Z,99.99
2019-02-15T05:48:17.752Z,99.99
2019-02-15T05:49:17.740Z,99.99
2019-02-15T05:50:17.741Z,99.99
2019-02-15T05:51:17.726Z,99.99
2019-02-15T05:52:17.748Z,99.99
2019-02-15T05:53:17.702Z,99.99
2019-02-15T05:54:17.685Z,99.99
2019-02-15T05:55:17.679Z,99.99
2019-02-15T05:56:17.660Z,99.99
2019-02-15T05:57:17.647Z,99.99
2019-02-15T05:58:17.635Z,99.99
2019-02-15T05:59:17.617Z,99.99
2019-02-15T06:00:17.619Z,99.99
2019-02-15T06:01:17.602Z,99.99
2019-02-15T06:02:17.588Z,99.99
2019-02-15T06:03:17.584Z,99.99
2019-02-15T06:04:17.571Z,99.99
2019-02-15T06:05:17.550Z,99.99
2019-02-15T06:06:17.541Z,99.99
2019-02-15T06:07:17.528Z,99.99
2019-02-15T06:08:17.517Z,99.99
2019-02-15T06:09:17.507Z,99.99
2019-02-15T06:10:17.497Z,99.99
2019-02-15T06:11:17.479Z,99.99
2019-02-15T06:12:17.472Z,99.99
2019-02-15T06:13:17.459Z,99.99
2019-02-15T06:14:17.445Z,99.99
2019-02-15T06:15:17.432Z,99.99
2019-02-15T06:16:17.417Z,99.99
2019-02-15T06:17:17.404Z,99.99
2019-02-15T06:18:17.431Z,99.99
2019-02-15T06:19:17.387Z,99.99
2019-02-15T06:20:17.379Z,99.99
2019-02-15T06:21:17.354Z,99.99
2019-02-15T06:22:17.359Z,99.99
2019-02-15T06:23:17.338Z,99.99
2019-02-15T06:24:17.329Z,99.99
2019-02-15T06:25:17.317Z,99.99
2019-02-15T06:26:17.306Z,99.99
2019-02-15T06:27:17.293Z,99.99
2019-02-15T06:28:17.285Z,99.99
2019-02-15T06:29:17.270Z,99.99
2019-02-15T06:30:17.253Z,99.99
2019-02-15T06:31:17.245Z,99.99
2019-02-15T06:32:17.235Z,99.99
2019-02-15T06:33:17.226Z,99.99
2019-02-15T06:34:17.209Z,99.99
2019-02-15T06:35:17.205Z,99.99
2019-02-15T06:36:17.187Z,99.99
2019-02-15T06:37:17.177Z,99.99
2019-02-15T06:38:17.162Z,99.99
2019-02-15T06:39:17.150Z,99.99
2019-02-15T06:40:17.139Z,99.99
2019-02-15T06:41:17.128Z,99.99
2019-02-15T06:42:17.121Z,99.99
2019-02-15T06:43:17.095Z,99.99
2019-02-15T06:44:17.094Z,99.99
2019-02-15T06:45:24.214Z,99.99
2019-02-15T06:46:17.088Z,99.99
2019-02-15T06:47:17.070Z,99.99
2019-02-15T06:48:17.060Z,99.99
2019-02-15T06:49:17.032Z,99.99
2019-02-15T06:50:17.029Z,99.99
2019-02-15T06:51:17.031Z,99.99
2019-02-15T06:52:17.008Z,99.99
2019-02-15T06:53:17.000Z,99.99
2019-02-15T06:54:16.986Z,99.99
2019-02-15T06:55:16.972Z,99.99
2019-02-15T06:56:16.966Z,99.99
2019-02-15T06:57:16.965Z,99.99
2019-02-15T06:58:16.945Z,99.99
2019-02-15T06:59:16.932Z,99.99
2019-02-15T07:00:16.938Z,99.99
2019-02-15T07:01:16.913Z,99.99
2019-02-15T07:02:16.906Z,99.99
2019-02-15T07:03:16.891Z,99.99
2019-02-15T07:04:16.883Z,99.99
2019-02-15T07:05:16.876Z,99.99
2019-02-15T07:06:16.860Z,99.99
2019-02-15T07:07:17.328Z,99.99
2019-02-15T07:08:16.844Z,99.99
2019-02-15T07:09:16.877Z,99.99
2019-02-15T07:10:16.845Z,99.99
2019-02-15T07:11:16.820Z,99.99
2019-02-15T07:12:16.812Z,99.99
2019-02-15T07:13:16.810Z,99.99
2019-02-15T07:14:16.798Z,99.99
2019-02-15T07:15:16.784Z,99.99
2019-02-15T07:16:16.779Z,99.99
2019-02-15T07:17:16.775Z,99.99
2019-02-15T07:18:16.767Z,99.99
2019-02-15T07:19:16.757Z,99.99
2019-02-15T07:20:16.753Z,99.99
2019-02-15T07:21:16.730Z,99.99
2019-02-15T07:22:16.733Z,99.99
2019-02-15T07:23:16.725Z,99.99
2019-02-15T07:24:16.719Z,99.99
2019-02-15T07:25:16.715Z,99.99
2019-02-15T07:26:16.725Z,99.99
2019-02-15T07:27:16.699Z,99.99
2019-02-15T07:28:16.695Z,99.99
2019-02-15T07:29:16.687Z,99.99
2019-02-15T07:30:16.679Z,99.99
2019-02-15T07:31:16.688Z,99.99
2019-02-15T07:32:16.658Z,99.99
2019-02-15T07:33:16.665Z,99.99
2019-02-15T07:34:16.656Z,99.99
2019-02-15T07:35:16.649Z,99.78
2019-02-15T07:36:16.641Z,98.45
2019-02-15T07:37:16.640Z,97.36
2019-02-15T07:38:16.633Z,97.31
2019-02-15T07:39:16.627Z,97.22
2019-02-15T07:40:16.624Z,97.41
2019-02-15T07:41:16.615Z,96.69
2019-02-15T07:42:16.630Z,96.03
2019-02-15T07:43:16.604Z,95.65
2019-02-15T07:44:16.600Z,94.65
2019-02-15T07:45:17.877Z,93.79
2019-02-15T07:46:16.599Z,92.99
2019-02-15T07:47:16.589Z,91.60
2019-02-15T07:48:16.579Z,90.22
2019-02-15T07:49:16.577Z,89.22
2019-02-15T07:50:16.573Z,86.74
2019-02-15T07:51:16.566Z,85.41
2019-02-15T07:52:16.562Z,84.92
2019-02-15T07:53:16.557Z,84.78
2019-02-15T07:54:16.553Z,83.67
2019-02-15T07:55:16.541Z,82.34
2019-02-15T07:56:16.540Z,81.85
2019-02-15T07:57:16.541Z,80.13
2019-02-15T07:58:16.538Z,78.36
2019-02-15T07:59:16.533Z,77.50
2019-02-15T08:00:16.530Z,76.88
2019-02-15T08:01:16.527Z,77.26
2019-02-15T08:02:16.528Z,77.84
2019-02-15T08:03:16.519Z,77.74
2019-02-15T08:04:16.523Z,78.16
2019-02-15T08:05:16.516Z,77.34
2019-02-15T08:06:16.510Z,76.42
2019-02-15T08:07:16.519Z,74.99
2019-02-15T08:08:16.504Z,74.41
2019-02-15T08:09:16.501Z,73.61
2019-02-15T08:10:16.497Z,75.05
2019-02-15T08:11:16.498Z,75.62
2019-02-15T08:12:16.498Z,75.34
2019-02-15T08:13:16.491Z,76.69
2019-02-15T08:14:17.702Z,78.14
2019-02-15T08:15:16.487Z,80.68
2019-02-15T08:16:16.485Z,81.10
2019-02-15T08:17:16.481Z,80.95
2019-02-15T08:18:16.485Z,79.71
2019-02-15T08:19:16.499Z,78.75
2019-02-15T08:20:16.477Z,78.66
2019-02-15T08:21:16.477Z,78.28
2019-02-15T08:22:16.472Z,77.74
2019-02-15T08:23:16.474Z,76.84
2019-02-15T08:24:16.472Z,76.73
2019-02-15T08:25:16.472Z,76.16
2019-02-15T08:26:16.469Z,74.91
2019-02-15T08:27:16.466Z,74.95
2019-02-15T08:28:16.463Z,74.66
2019-02-15T08:29:16.465Z,74.15
2019-02-15T08:30:16.467Z,76.27
2019-02-15T08:31:16.476Z,77.13
2019-02-15T08:32:16.467Z,77.55
2019-02-15T08:33:16.469Z,75.78
2019-02-15T08:34:16.469Z,75.59
2019-02-15T08:35:16.472Z,76.31
2019-02-15T08:36:16.456Z,75.78
2019-02-15T08:37:16.469Z,75.71
2019-02-15T08:38:16.468Z,74.07
2019-02-15T08:39:16.468Z,71.97
2019-02-15T08:40:16.471Z,71.42
2019-02-15T08:41:16.471Z,71.04
2019-02-15T08:42:16.471Z,70.78
2019-02-15T08:43:16.483Z,72.28
2019-02-15T08:44:16.468Z,72.98
2019-02-15T08:45:16.470Z,72.31
2019-02-15T08:46:16.474Z,73.12
2019-02-15T08:47:16.471Z,76.42
2019-02-15T08:48:16.474Z,79.68
2019-02-15T08:49:16.480Z,82.41
2019-02-15T08:50:16.474Z,84.17
2019-02-15T08:51:16.474Z,86.65
2019-02-15T08:52:16.476Z,85.55
2019-02-15T08:53:16.483Z,85.46
2019-02-15T08:54:16.479Z,86.84
2019-02-15T08:55:16.477Z,86.18
2019-02-15T08:56:16.479Z,86.84
2019-02-15T08:57:16.486Z,87.46
2019-02-15T08:58:16.479Z,86.83
2019-02-15T08:59:16.490Z,85.60
2019-02-15T09:00:16.480Z,85.64
2019-02-15T09:01:16.482Z,86.84
2019-02-15T09:02:16.492Z,87.07
2019-02-15T09:03:16.486Z,85.99
2019-02-15T09:04:16.478Z,86.08
2019-02-15T09:05:16.488Z,85.84
2019-02-15T09:06:16.493Z,84.65
2019-02-15T09:07:16.487Z,85.13
2019-02-15T09:08:16.493Z,85.70
2019-02-15T09:09:16.488Z,85.60
2019-02-15T09:10:16.489Z,85.55
2019-02-15T09:11:16.491Z,85.46
2019-02-15T09:12:16.494Z,85.64
2019-02-15T09:13:16.529Z,85.41
2019-02-15T09:14:16.481Z,85.27
2019-02-15T09:15:16.492Z,85.74
2019-02-15T09:16:16.491Z,86.08
2019-02-15T09:17:16.490Z,86.88
2019-02-15T09:18:16.492Z,85.64
2019-02-15T09:19:16.497Z,84.69
2019-02-15T09:20:16.497Z,83.48
2019-02-15T09:21:16.500Z,82.34
2019-02-15T09:22:16.499Z,80.91
2019-02-15T09:23:16.509Z,80.33
2019-02-15T09:24:16.492Z,80.15
2019-02-15T09:25:16.506Z,80.43
2019-02-15T09:26:18.427Z,80.96
2019-02-15T09:27:16.508Z,81.38
2019-02-15T09:28:16.514Z,79.90
2019-02-15T09:29:16.510Z,78.79
2019-02-15T09:30:16.513Z,78.79
2019-02-15T09:31:16.515Z,78.09
2019-02-15T09:32:16.515Z,79.43
2019-02-15T09:33:16.522Z,79.46
2019-02-15T09:34:16.529Z,77.97
2019-02-15T09:35:16.516Z,77.44
2019-02-15T09:36:16.534Z,80.39
2019-02-15T09:37:16.531Z,80.68
2019-02-15T09:38:16.526Z,79.57
2019-02-15T09:39:16.531Z,79.67
2019-02-15T09:40:16.536Z,79.72
2019-02-15T09:41:16.550Z,79.90
2019-02-15T09:42:16.560Z,77.84
2019-02-15T09:43:16.543Z,76.25
2019-02-15T09:44:16.557Z,76.35
2019-02-15T09:45:16.568Z,75.89
2019-02-15T09:46:19.953Z,76.62
2019-02-15T09:47:16.553Z,77.76
2019-02-15T09:48:16.556Z,77.62
2019-02-15T09:49:16.562Z,78.14
2019-02-15T09:50:16.563Z,78.22
2019-02-15T09:51:16.568Z,77.69
2019-02-15T09:52:16.567Z,73.83
2019-02-15T09:53:16.583Z,72.11
2019-02-15T09:54:16.577Z,74.61
2019-02-15T09:55:16.579Z,76.71
2019-02-15T09:56:16.582Z,78.18
2019-02-15T09:57:16.583Z,75.59
2019-02-15T09:58:16.647Z,74.45
2019-02-15T09:59:16.591Z,72.23
2019-02-15T10:00:16.604Z,70.09
2019-02-15T10:01:16.598Z,69.92
2019-02-15T10:02:16.596Z,71.22
2019-02-15T10:03:16.610Z,72.69
2019-02-15T10:04:16.609Z,72.18
2019-02-15T10:05:16.608Z,71.68
2019-02-15T10:06:16.618Z,69.70
2019-02-15T10:07:16.624Z,69.54
2019-02-15T10:08:16.623Z,70.40
2019-02-15T10:09:16.627Z,70.17
2019-02-15T10:10:16.640Z,70.75
2019-02-15T10:11:16.633Z,71.13
2019-02-15T10:12:16.642Z,71.30
2019-02-15T10:13:16.645Z,70.85
2019-02-15T10:14:16.650Z,68.23
2019-02-15T10:15:16.655Z,68.68
2019-02-15T10:16:16.660Z,69.00
2019-02-15T10:17:16.666Z,68.90
2019-02-15T10:18:16.669Z,69.44
2019-02-15T10:19:22.415Z,68.74
2019-02-15T10:20:16.675Z,68.58
2019-02-15T10:21:16.680Z,70.52
2019-02-15T10:22:16.684Z,70.30
2019-02-15T10:23:16.689Z,70.56
2019-02-15T10:24:16.696Z,70.37
2019-02-15T10:25:16.698Z,67.79
2019-02-15T10:26:16.706Z,66.42
2019-02-15T10:27:16.706Z,65.94
2019-02-15T10:28:16.715Z,66.00
2019-02-15T10:29:16.717Z,68.11
2019-02-15T10:30:16.723Z,66.93
2019-02-15T10:31:16.743Z,67.54
2019-02-15T10:32:16.731Z,67.66
2019-02-15T10:33:16.735Z,68.23
2019-02-15T10:34:16.733Z,67.76
2019-02-15T10:35:16.749Z,68.58
2019-02-15T10:36:18.827Z,70.21
2019-02-15T10:37:16.759Z,72.66
2019-02-15T10:38:16.761Z,73.59
2019-02-15T10:39:16.768Z,71.75
2019-02-15T10:40:16.770Z,69.83
2019-02-15T10:41:16.777Z,68.69
2019-02-15T10:42:16.782Z,64.31
2019-02-15T10:43:16.774Z,64.15
2019-02-15T10:44:16.784Z,63.76
2019-02-15T10:45:16.794Z,62.71
2019-02-15T10:46:16.789Z,62.59
2019-02-15T10:47:24.663Z,61.75
2019-02-15T10:48:16.808Z,63.12
2019-02-15T10:49:16.813Z,63.64
2019-02-15T10:50:16.820Z,64.66
2019-02-15T10:51:16.826Z,65.01
2019-02-15T10:52:16.826Z,67.31
2019-02-15T10:53:16.840Z,66.54
2019-02-15T10:54:16.836Z,66.86
2019-02-15T10:55:16.839Z,67.22
2019-02-15T10:56:16.846Z,65.14
2019-02-15T10:57:16.852Z,64.28
2019-02-15T10:58:16.857Z,63.92
2019-02-15T10:59:16.898Z,65.20
2019-02-15T11:00:16.888Z,63.60
2019-02-15T11:01:16.874Z,61.88
2019-02-15T11:02:16.889Z,62.19
2019-02-15T11:03:16.886Z,61.98
2019-02-15T11:04:16.885Z,62.04
2019-02-15T11:05:16.897Z,63.09
2019-02-15T11:06:16.902Z,64.37
2019-02-15T11:07:16.906Z,66.51
2019-02-15T11:08:16.930Z,66.32
2019-02-15T11:09:16.914Z,66.09
2019-02-15T11:10:16.919Z,65.71
2019-02-15T11:11:16.926Z,65.91
2019-02-15T11:12:16.931Z,66.06
2019-02-15T11:13:16.935Z,67.72
2019-02-15T11:14:16.957Z,66.86
2019-02-15T11:15:16.947Z,64.09
2019-02-15T11:16:16.951Z,60.66
2019-02-15T11:17:16.958Z,61.43
2019-02-15T11:18:16.962Z,62.48
2019-02-15T11:19:16.966Z,62.96
2019-02-15T11:20:16.972Z,63.32
2019-02-15T11:21:16.985Z,64.47
2019-02-15T11:22:16.983Z,63.79
2019-02-15T11:23:16.989Z,64.02
2019-02-15T11:24:16.987Z,65.14
2019-02-15T11:25:17.000Z,66.32
2019-02-15T11:26:24.597Z,66.58
2019-02-15T11:27:17.006Z,66.67
2019-02-15T11:28:17.015Z,64.05
2019-02-15T11:29:17.034Z,61.49
2019-02-15T11:30:17.024Z,59.64
2019-02-15T11:31:17.169Z,61.46
2019-02-15T11:32:17.029Z,62.90
2019-02-15T11:33:17.037Z,62.13
2019-02-15T11:34:17.042Z,62.68
2019-02-15T11:35:17.046Z,63.42
2019-02-15T11:36:17.053Z,65.17
2019-02-15T11:37:17.058Z,64.02
2019-02-15T11:38:17.062Z,63.92
2019-02-15T11:39:17.065Z,61.81
2019-02-15T11:40:17.071Z,59.96
2019-02-15T11:41:17.078Z,59.80
2019-02-15T11:42:17.088Z,60.27
2019-02-15T11:43:17.083Z,58.42
2019-02-15T11:44:17.092Z,58.99
2019-02-15T11:45:17.097Z,58.20
2019-02-15T11:46:17.102Z,57.97
2019-02-15T11:47:17.105Z,60.53
2019-02-15T11:48:17.111Z,61.49
2019-02-15T11:49:17.113Z,60.60
2019-02-15T11:50:17.121Z,59.24
2019-02-15T11:51:17.118Z,59.53
2019-02-15T11:52:17.125Z,58.54
2019-02-15T11:53:17.138Z,58.58
2019-02-15T11:54:23.334Z,58.62
2019-02-15T11:55:17.145Z,59.22
2019-02-15T11:56:17.152Z,61.40
2019-02-15T11:57:17.157Z,61.11
2019-02-15T11:58:17.161Z,61.85
2019-02-15T11:59:17.166Z,62.74
2019-02-15T12:00:18.417Z,63.02
2019-02-15T12:01:17.181Z,60.49
2019-02-15T12:02:17.181Z,58.35
2019-02-15T12:03:17.196Z,59.28
2019-02-15T12:04:17.190Z,59.41
2019-02-15T12:05:17.200Z,58.25
2019-02-15T12:06:17.203Z,57.78
2019-02-15T12:07:17.209Z,57.59
2019-02-15T12:08:17.211Z,59.19
2019-02-15T12:09:17.216Z,61.46
2019-02-15T12:10:17.237Z,62.01
2019-02-15T12:11:17.225Z,63.00
2019-02-15T12:12:17.231Z,63.38
2019-02-15T12:13:17.242Z,62.29
2019-02-15T12:14:17.239Z,60.66
2019-02-15T12:15:17.246Z,61.49
2019-02-15T12:16:17.252Z,59.45
2019-02-15T12:17:17.257Z,60.93
2019-02-15T12:18:17.260Z,63.51
2019-02-15T12:19:17.275Z,62.87
2019-02-15T12:20:17.271Z,63.38
2019-02-15T12:21:17.273Z,63.19
2019-02-15T12:22:17.278Z,65.01
2019-02-15T12:23:17.285Z,65.33
2019-02-15T12:24:17.288Z,66.80
2019-02-15T12:25:17.308Z,65.88
2019-02-15T12:26:17.299Z,64.25
2019-02-15T12:27:17.302Z,62.58
2019-02-15T12:28:17.306Z,60.66
2019-02-15T12:29:17.308Z,62.35
2019-02-15T12:30:17.313Z,61.04
2019-02-15T12:31:17.315Z,60.63
2019-02-15T12:32:17.321Z,60.47
2019-02-15T12:33:17.328Z,61.56
2019-02-15T12:34:17.318Z,64.15
2019-02-15T12:35:17.330Z,62.93
2019-02-15T12:36:17.336Z,62.93
2019-02-15T12:37:17.339Z,63.06
2019-02-15T12:38:17.336Z,62.90
2019-02-15T12:39:17.340Z,65.01
2019-02-15T12:40:17.350Z,67.41
2019-02-15T12:41:17.351Z,66.96
2019-02-15T12:42:17.356Z,66.67
2019-02-15T12:43:17.364Z,67.43
2019-02-15T12:44:17.367Z,68.26
2019-02-15T12:45:17.372Z,69.95
2019-02-15T12:46:17.381Z,69.34
2019-02-15T12:47:17.422Z,71.06
2019-02-15T12:48:17.375Z,70.83
2019-02-15T12:49:17.403Z,72.89
2019-02-15T12:50:17.381Z,74.77
2019-02-15T12:51:17.385Z,75.91
2019-02-15T12:52:17.386Z,77.25